sensor_id;sensor_type;location;lat;lon;timestamp;temperature;humidity
1377;DHT22;682;52.502;13.488;2022-10-17T00:00:46;14.10;1.00
1377;DHT22;682;52.502;13.488;2022-10-17T00:03:17;14.20;1.00
1377;DHT22;682;52.502;13.488;2022-10-17T00:05:48;14.20;1.00
1377;DHT22;682;52.502;13.488;2022-10-17T00:08:17;14.20;1.00
1377;DHT22;682;52.502;13.488;2022-10-17T00:10:45;14.20;1.00
1377;DHT22;682;52.502;13.488;2022-10-17T00:13:21;14.20;1.00
1377;DHT22;682;52.502;13.488;2022-10-17T00:15:57;14.20;1.00
1377;DHT22;682;52.502;13.488;2022-10-17T00:18:25;14.30;1.00
1377;DHT22;682;52.502;13.488;2022-10-17T00:20:56;14.20;1.00
1377;DHT22;682;52.502;13.488;2022-10-17T00:23:28;14.20;1.00
1377;DHT22;682;52.502;13.488;2022-10-17T00:25:58;14.20;1.00
1377;DHT22;682;52.502;13.488;2022-10-17T00:28:25;14.20;1.00
1377;DHT22;682;52.502;13.488;2022-10-17T00:30:56;14.20;1.00
1377;DHT22;682;52.502;13.488;2022-10-17T00:33:34;14.20;1.00
1377;DHT22;682;52.502;13.488;2022-10-17T00:36:09;14.30;1.00
1377;DHT22;682;52.502;13.488;2022-10-17T00:38:39;14.20;1.00
1377;DHT22;682;52.502;13.488;2022-10-17T00:41:07;14.20;1.00
1377;DHT22;682;52.502;13.488;2022-10-17T00:43:58;14.20;1.00
1377;DHT22;682;52.502;13.488;2022-10-17T00:46:57;14.10;1.00
1377;DHT22;682;52.502;13.488;2022-10-17T00:49:28;14.10;1.00
1377;DHT22;682;52.502;13.488;2022-10-17T00:52:19;14.10;1.00
1377;DHT22;682;52.502;13.488;2022-10-17T00:54:58;14.20;1.00
1377;DHT22;682;52.502;13.488;2022-10-17T00:57:39;14.20;1.00
1377;DHT22;682;52.502;13.488;2022-10-17T01:00:15;14.30;1.00
1377;DHT22;682;52.502;13.488;2022-10-17T01:02:44;14.40;1.00
1377;DHT22;682;52.502;13.488;2022-10-17T01:05:15;14.40;1.00
1377;DHT22;682;52.502;13.488;2022-10-17T01:07:48;14.50;1.00
1377;DHT22;682;52.502;13.488;2022-10-17T01:10:29;14.50;1.00
1377;DHT22;682;52.502;13.488;2022-10-17T01:13:26;14.60;1.00
1377;DHT22;682;52.502;13.488;2022-10-17T01:16:02;14.60;1.00
1377;DHT22;682;52.502;13.488;2022-10-17T01:18:41;14.70;1.00
1377;DHT22;682;52.502;13.488;2022-10-17T01:21:30;14.70;1.00
1377;DHT22;682;52.502;13.488;2022-10-17T01:24:47;14.50;1.00
1377;DHT22;682;52.502;13.488;2022-10-17T01:33:50;14.40;1.00
1377;DHT22;682;52.502;13.488;2022-10-17T01:36:38;14.30;1.00
1377;DHT22;682;52.502;13.488;2022-10-17T01:39:21;14.30;1.00
1377;DHT22;682;52.502;13.488;2022-10-17T01:42:00;14.30;1.00
1377;DHT22;682;52.502;13.488;2022-10-17T01:44:40;14.30;1.00
1377;DHT22;682;52.502;13.488;2022-10-17T01:47:18;14.30;1.00
1377;DHT22;682;52.502;13.488;2022-10-17T01:50:47;14.30;1.00
1377;DHT22;682;52.502;13.488;2022-10-17T01:55:55;14.30;1.00
1377;DHT22;682;52.502;13.488;2022-10-17T01:58:39;14.30;1.00
1377;DHT22;682;52.502;13.488;2022-10-17T02:01:28;14.20;1.00
1377;DHT22;682;52.502;13.488;2022-10-17T02:04:08;14.10;1.00
1377;DHT22;682;52.502;13.488;2022-10-17T02:06:40;14.10;1.00
1377;DHT22;682;52.502;13.488;2022-10-17T02:09:18;14.10;1.00
1377;DHT22;682;52.502;13.488;2022-10-17T02:11:54;14.10;1.00
1377;DHT22;682;52.502;13.488;2022-10-17T02:14:40;14.10;1.00
1377;DHT22;682;52.502;13.488;2022-10-17T02:17:26;14.10;1.00
1377;DHT22;682;52.502;13.488;2022-10-17T02:20:09;14.00;1.00
1377;DHT22;682;52.502;13.488;2022-10-17T02:22:55;14.00;1.00
1377;DHT22;682;52.502;13.488;2022-10-17T02:25:32;14.00;1.00
1377;DHT22;682;52.502;13.488;2022-10-17T02:28:08;14.00;1.00
1377;DHT22;682;52.502;13.488;2022-10-17T02:30:43;13.90;1.00
1377;DHT22;682;52.502;13.488;2022-10-17T02:33:13;13.80;1.00
1377;DHT22;682;52.502;13.488;2022-10-17T02:35:48;13.80;1.00
1377;DHT22;682;52.502;13.488;2022-10-17T02:38:18;13.70;1.00
1377;DHT22;682;52.502;13.488;2022-10-17T02:40:45;13.60;1.00
1377;DHT22;682;52.502;13.488;2022-10-17T02:43:14;13.50;1.00
1377;DHT22;682;52.502;13.488;2022-10-17T02:45:41;13.60;1.00
1377;DHT22;682;52.502;13.488;2022-10-17T02:48:09;13.60;1.00
1377;DHT22;682;52.502;13.488;2022-10-17T02:50:48;13.60;1.00
1377;DHT22;682;52.502;13.488;2022-10-17T02:53:25;13.70;1.00
1377;DHT22;682;52.502;13.488;2022-10-17T02:55:57;13.80;1.00
1377;DHT22;682;52.502;13.488;2022-10-17T02:58:30;13.80;1.00
1377;DHT22;682;52.502;13.488;2022-10-17T03:00:58;13.80;1.00
1377;DHT22;682;52.502;13.488;2022-10-17T03:03:27;13.80;1.00
1377;DHT22;682;52.502;13.488;2022-10-17T03:05:54;13.70;1.00
1377;DHT22;682;52.502;13.488;2022-10-17T03:08:24;13.60;1.00
1377;DHT22;682;52.502;13.488;2022-10-17T03:10:51;13.60;1.00
1377;DHT22;682;52.502;13.488;2022-10-17T03:13:18;13.60;1.00
1377;DHT22;682;52.502;13.488;2022-10-17T03:15:44;13.50;1.00
1377;DHT22;682;52.502;13.488;2022-10-17T03:18:12;13.50;1.00
1377;DHT22;682;52.502;13.488;2022-10-17T03:20:38;13.50;1.00
1377;DHT22;682;52.502;13.488;2022-10-17T03:23:05;13.40;1.00
1377;DHT22;682;52.502;13.488;2022-10-17T03:25:35;13.50;1.00
1377;DHT22;682;52.502;13.488;2022-10-17T03:28:02;13.50;1.00
1377;DHT22;682;52.502;13.488;2022-10-17T03:30:30;13.50;1.00
1377;DHT22;682;52.502;13.488;2022-10-17T03:32:57;13.60;1.00
1377;DHT22;682;52.502;13.488;2022-10-17T03:35:24;13.60;1.00
1377;DHT22;682;52.502;13.488;2022-10-17T03:37:53;13.70;1.00
1377;DHT22;682;52.502;13.488;2022-10-17T03:40:23;13.70;1.00
1377;DHT22;682;52.502;13.488;2022-10-17T03:42:52;13.70;1.00
1377;DHT22;682;52.502;13.488;2022-10-17T03:45:19;13.70;1.00
1377;DHT22;682;52.502;13.488;2022-10-17T03:47:47;13.70;1.00
1377;DHT22;682;52.502;13.488;2022-10-17T03:50:15;13.70;1.00
1377;DHT22;682;52.502;13.488;2022-10-17T03:52:45;13.70;1.00
1377;DHT22;682;52.502;13.488;2022-10-17T03:55:13;13.70;1.00
1377;DHT22;682;52.502;13.488;2022-10-17T03:57:40;13.60;1.00
1377;DHT22;682;52.502;13.488;2022-10-17T04:00:09;13.60;1.00
1377;DHT22;682;52.502;13.488;2022-10-17T04:02:37;13.60;1.00
1377;DHT22;682;52.502;13.488;2022-10-17T04:05:05;13.50;1.00
1377;DHT22;682;52.502;13.488;2022-10-17T04:07:32;13.50;1.00
1377;DHT22;682;52.502;13.488;2022-10-17T04:10:02;13.50;1.00
1377;DHT22;682;52.502;13.488;2022-10-17T04:12:30;13.50;1.00
1377;DHT22;682;52.502;13.488;2022-10-17T04:14:57;13.50;1.00
1377;DHT22;682;52.502;13.488;2022-10-17T04:17:25;13.40;1.00
1377;DHT22;682;52.502;13.488;2022-10-17T04:19:52;13.40;1.00
1377;DHT22;682;52.502;13.488;2022-10-17T04:22:19;13.40;1.00
1377;DHT22;682;52.502;13.488;2022-10-17T04:24:46;13.60;1.00
1377;DHT22;682;52.502;13.488;2022-10-17T04:27:12;13.60;1.00
1377;DHT22;682;52.502;13.488;2022-10-17T04:29:41;13.70;1.00
1377;DHT22;682;52.502;13.488;2022-10-17T04:32:09;13.60;1.00
1377;DHT22;682;52.502;13.488;2022-10-17T04:34:41;13.60;1.00
1377;DHT22;682;52.502;13.488;2022-10-17T04:37:08;13.70;1.00
1377;DHT22;682;52.502;13.488;2022-10-17T04:39:35;13.60;1.00
1377;DHT22;682;52.502;13.488;2022-10-17T04:42:02;13.70;1.00
1377;DHT22;682;52.502;13.488;2022-10-17T04:44:31;13.70;1.00
1377;DHT22;682;52.502;13.488;2022-10-17T04:47:00;13.70;1.00
1377;DHT22;682;52.502;13.488;2022-10-17T04:49:27;13.60;1.00
1377;DHT22;682;52.502;13.488;2022-10-17T04:51:55;13.60;1.00
1377;DHT22;682;52.502;13.488;2022-10-17T04:54:22;13.60;1.00
1377;DHT22;682;52.502;13.488;2022-10-17T04:56:49;13.60;1.00
1377;DHT22;682;52.502;13.488;2022-10-17T04:59:16;13.60;1.00
1377;DHT22;682;52.502;13.488;2022-10-17T05:01:43;13.50;1.00
1377;DHT22;682;52.502;13.488;2022-10-17T05:04:14;13.50;1.00
1377;DHT22;682;52.502;13.488;2022-10-17T05:06:41;13.50;1.00
1377;DHT22;682;52.502;13.488;2022-10-17T05:09:09;13.50;1.00
1377;DHT22;682;52.502;13.488;2022-10-17T05:11:36;13.50;1.00
1377;DHT22;682;52.502;13.488;2022-10-17T05:14:03;13.50;1.00
1377;DHT22;682;52.502;13.488;2022-10-17T05:16:30;13.50;1.00
1377;DHT22;682;52.502;13.488;2022-10-17T05:18:59;13.50;1.00
1377;DHT22;682;52.502;13.488;2022-10-17T05:21:27;13.50;1.00
1377;DHT22;682;52.502;13.488;2022-10-17T05:23:55;13.50;1.00
1377;DHT22;682;52.502;13.488;2022-10-17T05:26:23;13.50;1.00
1377;DHT22;682;52.502;13.488;2022-10-17T05:28:51;13.50;1.00
1377;DHT22;682;52.502;13.488;2022-10-17T05:31:19;13.50;1.00
1377;DHT22;682;52.502;13.488;2022-10-17T05:33:46;13.50;1.00
1377;DHT22;682;52.502;13.488;2022-10-17T05:36:19;13.50;1.00
1377;DHT22;682;52.502;13.488;2022-10-17T05:38:48;13.50;1.00
1377;DHT22;682;52.502;13.488;2022-10-17T05:41:15;13.50;1.00
1377;DHT22;682;52.502;13.488;2022-10-17T05:43:43;13.60;1.00
1377;DHT22;682;52.502;13.488;2022-10-17T05:46:10;13.50;1.00
1377;DHT22;682;52.502;13.488;2022-10-17T05:48:37;13.60;1.00
1377;DHT22;682;52.502;13.488;2022-10-17T05:51:06;13.60;1.00
1377;DHT22;682;52.502;13.488;2022-10-17T05:53:34;13.70;1.00
1377;DHT22;682;52.502;13.488;2022-10-17T05:56:03;13.70;1.00
1377;DHT22;682;52.502;13.488;2022-10-17T05:58:31;13.70;1.00
1377;DHT22;682;52.502;13.488;2022-10-17T06:01:02;13.70;1.00
1377;DHT22;682;52.502;13.488;2022-10-17T06:03:29;13.80;1.00
1377;DHT22;682;52.502;13.488;2022-10-17T06:06:02;13.80;1.00
1377;DHT22;682;52.502;13.488;2022-10-17T06:08:29;13.80;1.00
1377;DHT22;682;52.502;13.488;2022-10-17T06:10:56;13.80;1.00
1377;DHT22;682;52.502;13.488;2022-10-17T06:13:24;13.80;1.00
1377;DHT22;682;52.502;13.488;2022-10-17T06:15:51;13.90;1.00
1377;DHT22;682;52.502;13.488;2022-10-17T06:18:20;13.90;1.00
1377;DHT22;682;52.502;13.488;2022-10-17T06:20:47;13.90;1.00
1377;DHT22;682;52.502;13.488;2022-10-17T06:23:17;14.00;1.00
1377;DHT22;682;52.502;13.488;2022-10-17T06:25:44;14.00;1.00
1377;DHT22;682;52.502;13.488;2022-10-17T06:28:11;14.00;1.00
1377;DHT22;682;52.502;13.488;2022-10-17T06:30:38;14.20;1.00
1377;DHT22;682;52.502;13.488;2022-10-17T06:33:06;14.10;1.00
1377;DHT22;682;52.502;13.488;2022-10-17T06:35:36;14.10;1.00
1377;DHT22;682;52.502;13.488;2022-10-17T06:38:03;14.20;1.00
1377;DHT22;682;52.502;13.488;2022-10-17T06:40:31;14.20;1.00
1377;DHT22;682;52.502;13.488;2022-10-17T06:42:58;14.30;1.00
1377;DHT22;682;52.502;13.488;2022-10-17T06:45:25;14.40;1.00
1377;DHT22;682;52.502;13.488;2022-10-17T06:47:52;14.40;1.00
1377;DHT22;682;52.502;13.488;2022-10-17T06:50:20;14.50;1.00
1377;DHT22;682;52.502;13.488;2022-10-17T06:52:51;14.50;1.00
1377;DHT22;682;52.502;13.488;2022-10-17T06:55:17;14.60;1.00
1377;DHT22;682;52.502;13.488;2022-10-17T06:57:44;14.60;1.00
1377;DHT22;682;52.502;13.488;2022-10-17T07:00:12;14.70;1.00
1377;DHT22;682;52.502;13.488;2022-10-17T07:02:39;14.60;1.00
1377;DHT22;682;52.502;13.488;2022-10-17T07:05:08;14.70;1.00
1377;DHT22;682;52.502;13.488;2022-10-17T07:07:36;14.70;1.00
1377;DHT22;682;52.502;13.488;2022-10-17T07:10:07;14.80;1.00
1377;DHT22;682;52.502;13.488;2022-10-17T07:12:35;14.80;1.00
1377;DHT22;682;52.502;13.488;2022-10-17T07:15:04;14.90;1.00
1377;DHT22;682;52.502;13.488;2022-10-17T07:17:31;15.00;1.00
1377;DHT22;682;52.502;13.488;2022-10-17T07:19:58;15.10;1.00
1377;DHT22;682;52.502;13.488;2022-10-17T07:22:25;15.20;1.00
1377;DHT22;682;52.502;13.488;2022-10-17T07:24:53;15.30;1.00
1377;DHT22;682;52.502;13.488;2022-10-17T07:27:29;15.40;1.00
1377;DHT22;682;52.502;13.488;2022-10-17T07:29:58;15.50;1.00
1377;DHT22;682;52.502;13.488;2022-10-17T07:32:27;15.60;1.00
1377;DHT22;682;52.502;13.488;2022-10-17T07:34:54;15.60;1.00
1377;DHT22;682;52.502;13.488;2022-10-17T07:37:20;15.70;1.00
1377;DHT22;682;52.502;13.488;2022-10-17T07:39:47;15.80;1.00
1377;DHT22;682;52.502;13.488;2022-10-17T07:42:17;15.80;1.00
1377;DHT22;682;52.502;13.488;2022-10-17T07:44:48;15.90;1.00
1377;DHT22;682;52.502;13.488;2022-10-17T07:47:26;16.00;1.00
1377;DHT22;682;52.502;13.488;2022-10-17T07:49:59;16.10;1.00
1377;DHT22;682;52.502;13.488;2022-10-17T07:52:30;16.20;1.00
1377;DHT22;682;52.502;13.488;2022-10-17T07:55:00;16.30;1.00
1377;DHT22;682;52.502;13.488;2022-10-17T07:57:28;16.50;1.00
1377;DHT22;682;52.502;13.488;2022-10-17T08:06:47;16.90;1.00
1377;DHT22;682;52.502;13.488;2022-10-17T08:10:19;17.20;1.00
1377;DHT22;682;52.502;13.488;2022-10-17T08:39:07;22.20;1.00
1377;DHT22;682;52.502;13.488;2022-10-17T08:44:40;22.10;1.00
1377;DHT22;682;52.502;13.488;2022-10-17T08:50:47;24.30;1.00
1377;DHT22;682;52.502;13.488;2022-10-17T09:46:52;23.40;1.00
1377;DHT22;682;52.502;13.488;2022-10-17T09:50:13;23.70;1.00
1377;DHT22;682;52.502;13.488;2022-10-17T09:56:24;23.90;1.00
1377;DHT22;682;52.502;13.488;2022-10-17T10:06:24;24.30;1.00
1377;DHT22;682;52.502;13.488;2022-10-17T10:09:16;24.00;1.00
1377;DHT22;682;52.502;13.488;2022-10-17T10:12:46;24.00;1.00
1377;DHT22;682;52.502;13.488;2022-10-17T10:18:51;24.30;1.00
1377;DHT22;682;52.502;13.488;2022-10-17T10:21:53;24.30;1.00
1377;DHT22;682;52.502;13.488;2022-10-17T10:24:27;24.50;1.00
1377;DHT22;682;52.502;13.488;2022-10-17T10:26:58;24.80;1.00
1377;DHT22;682;52.502;13.488;2022-10-17T10:29:31;24.90;1.00
1377;DHT22;682;52.502;13.488;2022-10-17T10:32:08;25.00;1.00
1377;DHT22;682;52.502;13.488;2022-10-17T10:34:43;25.20;1.00
1377;DHT22;682;52.502;13.488;2022-10-17T10:37:20;25.40;1.00
1377;DHT22;682;52.502;13.488;2022-10-17T10:39:51;25.40;1.00
1377;DHT22;682;52.502;13.488;2022-10-17T10:42:31;25.60;1.00
1377;DHT22;682;52.502;13.488;2022-10-17T10:45:22;25.50;1.00
1377;DHT22;682;52.502;13.488;2022-10-17T10:47:58;25.60;1.00
1377;DHT22;682;52.502;13.488;2022-10-17T10:50:28;25.60;1.00
1377;DHT22;682;52.502;13.488;2022-10-17T10:53:13;25.80;1.00
1377;DHT22;682;52.502;13.488;2022-10-17T10:55:51;26.50;1.00
1377;DHT22;682;52.502;13.488;2022-10-17T10:58:49;27.20;1.00
1377;DHT22;682;52.502;13.488;2022-10-17T11:01:32;28.10;1.00
1377;DHT22;682;52.502;13.488;2022-10-17T11:04:19;28.90;1.00
1377;DHT22;682;52.502;13.488;2022-10-17T11:07:20;28.50;1.00
1377;DHT22;682;52.502;13.488;2022-10-17T11:20:23;34.00;1.00
1377;DHT22;682;52.502;13.488;2022-10-17T11:23:21;33.80;1.00
1377;DHT22;682;52.502;13.488;2022-10-17T12:42:01;29.00;1.00
1377;DHT22;682;52.502;13.488;2022-10-17T12:44:40;28.60;1.00
1377;DHT22;682;52.502;13.488;2022-10-17T12:48:41;28.90;1.00
1377;DHT22;682;52.502;13.488;2022-10-17T12:51:00;29.20;1.00
1377;DHT22;682;52.502;13.488;2022-10-17T12:53:37;29.40;1.00
1377;DHT22;682;52.502;13.488;2022-10-17T12:56:11;29.70;1.00
1377;DHT22;682;52.502;13.488;2022-10-17T12:59:01;29.60;1.00
1377;DHT22;682;52.502;13.488;2022-10-17T13:01:52;29.60;1.00
1377;DHT22;682;52.502;13.488;2022-10-17T13:04:48;29.40;1.00
1377;DHT22;682;52.502;13.488;2022-10-17T13:07:41;28.80;1.00
1377;DHT22;682;52.502;13.488;2022-10-17T13:10:21;28.30;1.00
1377;DHT22;682;52.502;13.488;2022-10-17T13:13:10;27.90;1.00
1377;DHT22;682;52.502;13.488;2022-10-17T13:15:53;28.00;1.00
1377;DHT22;682;52.502;13.488;2022-10-17T13:18:30;27.90;1.00
1377;DHT22;682;52.502;13.488;2022-10-17T13:21:02;27.60;1.00
1377;DHT22;682;52.502;13.488;2022-10-17T13:23:42;27.20;1.00
1377;DHT22;682;52.502;13.488;2022-10-17T13:26:19;27.10;1.00
1377;DHT22;682;52.502;13.488;2022-10-17T13:29:01;27.00;1.00
1377;DHT22;682;52.502;13.488;2022-10-17T13:31:36;27.00;1.00
1377;DHT22;682;52.502;13.488;2022-10-17T13:34:20;26.90;1.00
1377;DHT22;682;52.502;13.488;2022-10-17T13:36:50;26.80;1.00
1377;DHT22;682;52.502;13.488;2022-10-17T13:39:23;26.70;1.00
1377;DHT22;682;52.502;13.488;2022-10-17T13:41:58;26.80;1.00
1377;DHT22;682;52.502;13.488;2022-10-17T13:44:50;26.90;1.00
1377;DHT22;682;52.502;13.488;2022-10-17T13:48:33;26.90;1.00
1377;DHT22;682;52.502;13.488;2022-10-17T13:50:52;26.80;1.00
1377;DHT22;682;52.502;13.488;2022-10-17T13:53:30;26.50;1.00
1377;DHT22;682;52.502;13.488;2022-10-17T13:56:20;26.30;1.00
1377;DHT22;682;52.502;13.488;2022-10-17T13:58:53;26.10;1.00
1377;DHT22;682;52.502;13.488;2022-10-17T14:01:31;26.10;1.00
1377;DHT22;682;52.502;13.488;2022-10-17T14:04:01;26.00;1.00
1377;DHT22;682;52.502;13.488;2022-10-17T14:06:30;25.90;1.00
1377;DHT22;682;52.502;13.488;2022-10-17T14:09:02;25.80;1.00
1377;DHT22;682;52.502;13.488;2022-10-17T14:11:42;25.60;1.00
1377;DHT22;682;52.502;13.488;2022-10-17T14:14:21;25.70;1.00
1377;DHT22;682;52.502;13.488;2022-10-17T14:23:41;25.70;1.00
1377;DHT22;682;52.502;13.488;2022-10-17T14:26:11;25.70;1.00
1377;DHT22;682;52.502;13.488;2022-10-17T14:29:03;25.60;1.00
1377;DHT22;682;52.502;13.488;2022-10-17T14:32:03;25.50;1.00
1377;DHT22;682;52.502;13.488;2022-10-17T14:35:18;25.50;1.00
1377;DHT22;682;52.502;13.488;2022-10-17T14:38:03;25.50;1.00
1377;DHT22;682;52.502;13.488;2022-10-17T14:40:52;25.40;1.00
1377;DHT22;682;52.502;13.488;2022-10-17T14:43:39;25.40;1.00
1377;DHT22;682;52.502;13.488;2022-10-17T14:49:41;25.30;1.00
1377;DHT22;682;52.502;13.488;2022-10-17T14:52:10;25.20;1.00
1377;DHT22;682;52.502;13.488;2022-10-17T14:54:41;25.20;1.00
1377;DHT22;682;52.502;13.488;2022-10-17T15:00:31;24.90;1.00
1377;DHT22;682;52.502;13.488;2022-10-17T15:03:12;24.80;1.00
1377;DHT22;682;52.502;13.488;2022-10-17T15:05:52;24.70;1.00
1377;DHT22;682;52.502;13.488;2022-10-17T15:08:38;24.60;1.00
1377;DHT22;682;52.502;13.488;2022-10-17T15:11:19;24.50;1.00
1377;DHT22;682;52.502;13.488;2022-10-17T15:14:00;24.60;1.00
1377;DHT22;682;52.502;13.488;2022-10-17T15:16:42;24.60;1.00
1377;DHT22;682;52.502;13.488;2022-10-17T15:19:20;24.50;1.00
1377;DHT22;682;52.502;13.488;2022-10-17T15:21:57;24.50;1.00
1377;DHT22;682;52.502;13.488;2022-10-17T15:24:25;24.50;1.00
1377;DHT22;682;52.502;13.488;2022-10-17T15:26:55;24.40;1.00
1377;DHT22;682;52.502;13.488;2022-10-17T15:29:22;24.40;1.00
1377;DHT22;682;52.502;13.488;2022-10-17T15:35:13;24.30;1.00
1377;DHT22;682;52.502;13.488;2022-10-17T15:37:45;24.30;1.00
1377;DHT22;682;52.502;13.488;2022-10-17T15:40:18;24.40;1.00
1377;DHT22;682;52.502;13.488;2022-10-17T15:42:54;24.40;1.00
1377;DHT22;682;52.502;13.488;2022-10-17T15:45:27;24.30;1.00
1377;DHT22;682;52.502;13.488;2022-10-17T15:48:03;24.20;1.00
1377;DHT22;682;52.502;13.488;2022-10-17T15:50:33;24.00;1.00
1377;DHT22;682;52.502;13.488;2022-10-17T15:53:00;23.90;1.00
1377;DHT22;682;52.502;13.488;2022-10-17T15:55:37;23.80;1.00
1377;DHT22;682;52.502;13.488;2022-10-17T15:58:24;23.80;1.00
1377;DHT22;682;52.502;13.488;2022-10-17T16:01:05;23.70;1.00
1377;DHT22;682;52.502;13.488;2022-10-17T16:03:34;23.60;1.00
1377;DHT22;682;52.502;13.488;2022-10-17T16:06:07;23.50;1.00
1377;DHT22;682;52.502;13.488;2022-10-17T16:09:00;23.40;1.00
1377;DHT22;682;52.502;13.488;2022-10-17T16:11:46;23.20;1.00
1377;DHT22;682;52.502;13.488;2022-10-17T16:14:18;23.10;1.00
1377;DHT22;682;52.502;13.488;2022-10-17T16:16:59;23.00;1.00
1377;DHT22;682;52.502;13.488;2022-10-17T16:20:19;22.90;1.00
1377;DHT22;682;52.502;13.488;2022-10-17T16:28:49;22.60;1.00
1377;DHT22;682;52.502;13.488;2022-10-17T16:34:46;22.50;1.00
1377;DHT22;682;52.502;13.488;2022-10-17T16:37:26;22.40;1.00
1377;DHT22;682;52.502;13.488;2022-10-17T16:40:05;22.40;1.00
1377;DHT22;682;52.502;13.488;2022-10-17T16:45:59;22.30;1.00
1377;DHT22;682;52.502;13.488;2022-10-17T16:46:04;22.20;1.00
1377;DHT22;682;52.502;13.488;2022-10-17T16:48:42;22.10;1.00
1377;DHT22;682;52.502;13.488;2022-10-17T16:51:18;22.00;1.00
1377;DHT22;682;52.502;13.488;2022-10-17T16:54:00;21.90;1.00
1377;DHT22;682;52.502;13.488;2022-10-17T16:56:35;21.80;1.00
1377;DHT22;682;52.502;13.488;2022-10-17T16:59:17;21.70;1.00
1377;DHT22;682;52.502;13.488;2022-10-17T17:01:45;21.50;1.00
1377;DHT22;682;52.502;13.488;2022-10-17T17:04:16;21.50;1.00
1377;DHT22;682;52.502;13.488;2022-10-17T17:06:46;21.40;1.00
1377;DHT22;682;52.502;13.488;2022-10-17T17:09:14;21.30;1.00
1377;DHT22;682;52.502;13.488;2022-10-17T17:11:45;21.30;1.00
1377;DHT22;682;52.502;13.488;2022-10-17T17:14:17;21.30;1.00
1377;DHT22;682;52.502;13.488;2022-10-17T17:16:48;21.30;1.00
1377;DHT22;682;52.502;13.488;2022-10-17T17:19:17;21.20;1.00
1377;DHT22;682;52.502;13.488;2022-10-17T17:21:45;21.10;1.00
1377;DHT22;682;52.502;13.488;2022-10-17T17:24:15;21.00;1.00
1377;DHT22;682;52.502;13.488;2022-10-17T17:33:22;20.90;1.00
1377;DHT22;682;52.502;13.488;2022-10-17T17:36:05;20.90;1.00
1377;DHT22;682;52.502;13.488;2022-10-17T17:38:47;20.90;1.00
1377;DHT22;682;52.502;13.488;2022-10-17T17:41:26;20.90;1.00
1377;DHT22;682;52.502;13.488;2022-10-17T17:44:05;20.80;1.00
1377;DHT22;682;52.502;13.488;2022-10-17T17:46:36;20.70;1.00
1377;DHT22;682;52.502;13.488;2022-10-17T17:49:06;20.60;1.00
1377;DHT22;682;52.502;13.488;2022-10-17T17:51:36;20.50;1.00
1377;DHT22;682;52.502;13.488;2022-10-17T17:54:36;20.40;1.00
1377;DHT22;682;52.502;13.488;2022-10-17T17:57:03;20.30;1.00
1377;DHT22;682;52.502;13.488;2022-10-17T17:59:35;20.20;1.00
1377;DHT22;682;52.502;13.488;2022-10-17T18:02:05;20.20;1.00
1377;DHT22;682;52.502;13.488;2022-10-17T18:04:36;20.10;1.00
1377;DHT22;682;52.502;13.488;2022-10-17T18:07:05;20.10;1.00
1377;DHT22;682;52.502;13.488;2022-10-17T18:09:32;20.10;1.00
1377;DHT22;682;52.502;13.488;2022-10-17T18:12:24;20.00;1.00
1377;DHT22;682;52.502;13.488;2022-10-17T18:14:55;19.90;1.00
1377;DHT22;682;52.502;13.488;2022-10-17T18:17:27;19.80;1.00
1377;DHT22;682;52.502;13.488;2022-10-17T18:20:22;19.80;1.00
1377;DHT22;682;52.502;13.488;2022-10-17T18:22:58;19.70;1.00
1377;DHT22;682;52.502;13.488;2022-10-17T18:25:24;19.60;1.00
1377;DHT22;682;52.502;13.488;2022-10-17T18:27:53;19.50;1.00
1377;DHT22;682;52.502;13.488;2022-10-17T18:30:46;19.50;1.00
1377;DHT22;682;52.502;13.488;2022-10-17T18:33:30;19.40;1.00
1377;DHT22;682;52.502;13.488;2022-10-17T18:39:26;19.40;1.00
1377;DHT22;682;52.502;13.488;2022-10-17T18:42:15;19.40;1.00
1377;DHT22;682;52.502;13.488;2022-10-17T18:45:07;19.30;1.00
1377;DHT22;682;52.502;13.488;2022-10-17T18:48:01;19.20;1.00
1377;DHT22;682;52.502;13.488;2022-10-17T18:50:54;19.20;1.00
1377;DHT22;682;52.502;13.488;2022-10-17T18:53:47;19.10;1.00
1377;DHT22;682;52.502;13.488;2022-10-17T18:56:38;19.00;1.00
1377;DHT22;682;52.502;13.488;2022-10-17T18:59:28;19.00;1.00
1377;DHT22;682;52.502;13.488;2022-10-17T19:02:34;18.90;1.00
1377;DHT22;682;52.502;13.488;2022-10-17T19:05:07;18.70;1.00
1377;DHT22;682;52.502;13.488;2022-10-17T19:07:36;18.60;1.00
1377;DHT22;682;52.502;13.488;2022-10-17T19:10:05;18.50;1.00
1377;DHT22;682;52.502;13.488;2022-10-17T19:15:57;18.40;1.00
1377;DHT22;682;52.502;13.488;2022-10-17T19:18:24;18.30;1.00
1377;DHT22;682;52.502;13.488;2022-10-17T19:20:53;18.30;1.00
1377;DHT22;682;52.502;13.488;2022-10-17T19:23:20;18.20;1.00
1377;DHT22;682;52.502;13.488;2022-10-17T19:26:49;18.10;1.00
1377;DHT22;682;52.502;13.488;2022-10-17T19:29:16;18.10;1.00
1377;DHT22;682;52.502;13.488;2022-10-17T19:31:49;18.10;1.00
1377;DHT22;682;52.502;13.488;2022-10-17T19:34:29;18.20;1.00
1377;DHT22;682;52.502;13.488;2022-10-17T19:40:08;18.10;1.00
1377;DHT22;682;52.502;13.488;2022-10-17T19:42:48;18.10;1.00
1377;DHT22;682;52.502;13.488;2022-10-17T19:45:25;18.00;1.00
1377;DHT22;682;52.502;13.488;2022-10-17T19:47:52;18.00;1.00
1377;DHT22;682;52.502;13.488;2022-10-17T19:50:38;18.00;1.00
1377;DHT22;682;52.502;13.488;2022-10-17T19:53:10;18.00;1.00
1377;DHT22;682;52.502;13.488;2022-10-17T19:56:16;18.10;1.00
1377;DHT22;682;52.502;13.488;2022-10-17T20:01:47;18.10;1.00
1377;DHT22;682;52.502;13.488;2022-10-17T20:04:25;18.00;1.00
1377;DHT22;682;52.502;13.488;2022-10-17T20:06:53;18.00;1.00
1377;DHT22;682;52.502;13.488;2022-10-17T20:12:34;17.90;1.00
1377;DHT22;682;52.502;13.488;2022-10-17T20:15:15;17.80;1.00
1377;DHT22;682;52.502;13.488;2022-10-17T20:17:45;17.80;1.00
1377;DHT22;682;52.502;13.488;2022-10-17T20:20:14;17.80;1.00
1377;DHT22;682;52.502;13.488;2022-10-17T20:22:41;17.80;1.00
1377;DHT22;682;52.502;13.488;2022-10-17T20:25:09;17.80;1.00
1377;DHT22;682;52.502;13.488;2022-10-17T20:27:47;17.80;1.00
1377;DHT22;682;52.502;13.488;2022-10-17T20:30:16;17.80;1.00
1377;DHT22;682;52.502;13.488;2022-10-17T20:32:44;17.70;1.00
1377;DHT22;682;52.502;13.488;2022-10-17T20:35:25;17.70;1.00
1377;DHT22;682;52.502;13.488;2022-10-17T20:37:55;17.60;1.00
1377;DHT22;682;52.502;13.488;2022-10-17T20:40:58;17.60;1.00
1377;DHT22;682;52.502;13.488;2022-10-17T20:43:16;17.50;1.00
1377;DHT22;682;52.502;13.488;2022-10-17T20:46:27;17.50;1.00
1377;DHT22;682;52.502;13.488;2022-10-17T20:49:05;17.50;1.00
1377;DHT22;682;52.502;13.488;2022-10-17T20:51:47;17.40;1.00
1377;DHT22;682;52.502;13.488;2022-10-17T20:54:16;17.30;1.00
1377;DHT22;682;52.502;13.488;2022-10-17T20:56:49;17.20;1.00
1377;DHT22;682;52.502;13.488;2022-10-17T20:59:17;17.10;1.00
1377;DHT22;682;52.502;13.488;2022-10-17T21:01:48;17.10;1.00
1377;DHT22;682;52.502;13.488;2022-10-17T21:04:20;17.00;1.00
1377;DHT22;682;52.502;13.488;2022-10-17T21:06:56;17.00;1.00
1377;DHT22;682;52.502;13.488;2022-10-17T21:09:38;16.90;1.00
1377;DHT22;682;52.502;13.488;2022-10-17T21:12:18;16.90;1.00
1377;DHT22;682;52.502;13.488;2022-10-17T21:14:49;16.90;1.00
1377;DHT22;682;52.502;13.488;2022-10-17T21:17:18;16.80;1.00
1377;DHT22;682;52.502;13.488;2022-10-17T21:19:46;16.80;1.00
1377;DHT22;682;52.502;13.488;2022-10-17T21:22:13;16.70;1.00
1377;DHT22;682;52.502;13.488;2022-10-17T21:24:42;16.70;1.00